sensor_id;sensor_type;location;lat;lon;timestamp;temperature;humidity
26623;DHT22;14254;50.968;5.366;2022-11-27T00:00:24;6.70;99.90
26623;DHT22;14254;50.968;5.366;2022-11-27T00:02:49;6.70;99.90
26623;DHT22;14254;50.968;5.366;2022-11-27T00:05:15;6.70;99.90
26623;DHT22;14254;50.968;5.366;2022-11-27T00:07:41;6.70;99.90
26623;DHT22;14254;50.968;5.366;2022-11-27T00:10:07;6.60;99.90
26623;DHT22;14254;50.968;5.366;2022-11-27T00:12:33;6.50;99.90
26623;DHT22;14254;50.968;5.366;2022-11-27T00:14:59;6.40;99.90
26623;DHT22;14254;50.968;5.366;2022-11-27T00:17:25;6.40;99.90
26623;DHT22;14254;50.968;5.366;2022-11-27T00:19:50;6.30;99.90
26623;DHT22;14254;50.968;5.366;2022-11-27T00:22:16;6.20;99.90
26623;DHT22;14254;50.968;5.366;2022-11-27T00:24:42;6.10;99.90
26623;DHT22;14254;50.968;5.366;2022-11-27T00:27:08;6.00;99.90
26623;DHT22;14254;50.968;5.366;2022-11-27T00:29:34;6.00;99.90
26623;DHT22;14254;50.968;5.366;2022-11-27T00:31:59;5.90;99.90
26623;DHT22;14254;50.968;5.366;2022-11-27T00:34:25;5.80;99.90
26623;DHT22;14254;50.968;5.366;2022-11-27T00:36:51;5.80;99.90
26623;DHT22;14254;50.968;5.366;2022-11-27T00:39:16;5.90;99.90
26623;DHT22;14254;50.968;5.366;2022-11-27T00:41:42;5.90;99.90
26623;DHT22;14254;50.968;5.366;2022-11-27T00:44:08;5.80;99.90
26623;DHT22;14254;50.968;5.366;2022-11-27T00:46:34;5.80;99.90
26623;DHT22;14254;50.968;5.366;2022-11-27T00:49:01;5.80;99.90
26623;DHT22;14254;50.968;5.366;2022-11-27T00:51:28;5.70;99.90
26623;DHT22;14254;50.968;5.366;2022-11-27T00:53:55;5.70;99.90
26623;DHT22;14254;50.968;5.366;2022-11-27T00:56:26;5.80;99.90
26623;DHT22;14254;50.968;5.366;2022-11-27T00:58:52;5.90;99.90
26623;DHT22;14254;50.968;5.366;2022-11-27T01:01:21;6.00;99.90
26623;DHT22;14254;50.968;5.366;2022-11-27T01:03:47;6.10;99.90
26623;DHT22;14254;50.968;5.366;2022-11-27T01:06:13;6.00;99.90
26623;DHT22;14254;50.968;5.366;2022-11-27T01:08:40;6.10;99.90
26623;DHT22;14254;50.968;5.366;2022-11-27T01:11:06;6.20;99.90
26623;DHT22;14254;50.968;5.366;2022-11-27T01:13:35;6.20;99.90
26623;DHT22;14254;50.968;5.366;2022-11-27T01:16:03;6.30;99.90
26623;DHT22;14254;50.968;5.366;2022-11-27T01:18:29;6.30;99.90
26623;DHT22;14254;50.968;5.366;2022-11-27T01:20:55;6.40;99.90
26623;DHT22;14254;50.968;5.366;2022-11-27T01:23:22;6.50;99.90
26623;DHT22;14254;50.968;5.366;2022-11-27T01:25:48;6.50;99.90
26623;DHT22;14254;50.968;5.366;2022-11-27T01:28:15;6.60;99.90
26623;DHT22;14254;50.968;5.366;2022-11-27T01:30:41;6.60;99.90
26623;DHT22;14254;50.968;5.366;2022-11-27T01:33:07;6.90;99.90
26623;DHT22;14254;50.968;5.366;2022-11-27T01:35:32;6.70;99.90
26623;DHT22;14254;50.968;5.366;2022-11-27T01:37:58;6.70;99.90
26623;DHT22;14254;50.968;5.366;2022-11-27T01:40:25;6.80;99.90
26623;DHT22;14254;50.968;5.366;2022-11-27T01:42:50;6.80;99.90
26623;DHT22;14254;50.968;5.366;2022-11-27T01:45:18;6.80;99.90
26623;DHT22;14254;50.968;5.366;2022-11-27T01:47:51;6.80;99.90
26623;DHT22;14254;50.968;5.366;2022-11-27T01:50:30;6.90;99.90
26623;DHT22;14254;50.968;5.366;2022-11-27T01:53:02;6.90;99.90
26623;DHT22;14254;50.968;5.366;2022-11-27T01:55:38;6.80;99.90
26623;DHT22;14254;50.968;5.366;2022-11-27T01:58:14;6.80;99.90
26623;DHT22;14254;50.968;5.366;2022-11-27T02:00:42;6.90;99.90
26623;DHT22;14254;50.968;5.366;2022-11-27T02:03:08;7.10;99.90
26623;DHT22;14254;50.968;5.366;2022-11-27T02:05:34;7.10;99.90
26623;DHT22;14254;50.968;5.366;2022-11-27T02:08:05;7.10;99.90
26623;DHT22;14254;50.968;5.366;2022-11-27T02:10:47;7.10;99.90
26623;DHT22;14254;50.968;5.366;2022-11-27T02:13:38;7.10;99.90
26623;DHT22;14254;50.968;5.366;2022-11-27T02:21:28;7.10;99.90
26623;DHT22;14254;50.968;5.366;2022-11-27T02:29:49;7.20;99.90
26623;DHT22;14254;50.968;5.366;2022-11-27T02:38:24;7.20;99.90
26623;DHT22;14254;50.968;5.366;2022-11-27T02:41:02;7.20;99.90
26623;DHT22;14254;50.968;5.366;2022-11-27T02:43:33;7.20;99.90
26623;DHT22;14254;50.968;5.366;2022-11-27T02:46:02;7.20;99.90
26623;DHT22;14254;50.968;5.366;2022-11-27T02:48:35;7.30;99.90
26623;DHT22;14254;50.968;5.366;2022-11-27T02:51:03;7.30;99.90
26623;DHT22;14254;50.968;5.366;2022-11-27T02:53:32;7.20;99.90
26623;DHT22;14254;50.968;5.366;2022-11-27T02:56:06;7.20;99.90
26623;DHT22;14254;50.968;5.366;2022-11-27T02:58:35;7.30;99.90
26623;DHT22;14254;50.968;5.366;2022-11-27T03:01:04;7.30;99.90
26623;DHT22;14254;50.968;5.366;2022-11-27T03:03:34;7.40;99.90
26623;DHT22;14254;50.968;5.366;2022-11-27T03:06:07;7.50;99.90
26623;DHT22;14254;50.968;5.366;2022-11-27T03:11:08;7.50;99.90
26623;DHT22;14254;50.968;5.366;2022-11-27T03:13:39;7.60;99.90
26623;DHT22;14254;50.968;5.366;2022-11-27T03:21:47;7.60;99.90
26623;DHT22;14254;50.968;5.366;2022-11-27T03:24:15;7.70;99.90
26623;DHT22;14254;50.968;5.366;2022-11-27T03:26:41;7.70;99.90
26623;DHT22;14254;50.968;5.366;2022-11-27T03:29:20;7.70;99.90
26623;DHT22;14254;50.968;5.366;2022-11-27T03:31:47;7.70;99.90
26623;DHT22;14254;50.968;5.366;2022-11-27T03:34:14;7.70;99.90
26623;DHT22;14254;50.968;5.366;2022-11-27T03:36:41;7.60;99.90
26623;DHT22;14254;50.968;5.366;2022-11-27T03:39:06;7.80;99.90
26623;DHT22;14254;50.968;5.366;2022-11-27T03:44:38;7.80;99.90
26623;DHT22;14254;50.968;5.366;2022-11-27T03:50:16;7.70;99.90
26623;DHT22;14254;50.968;5.366;2022-11-27T03:56:06;7.80;99.90
26623;DHT22;14254;50.968;5.366;2022-11-27T04:01:10;7.80;99.90
26623;DHT22;14254;50.968;5.366;2022-11-27T04:03:37;7.90;99.90
26623;DHT22;14254;50.968;5.366;2022-11-27T04:06:03;7.90;99.90
26623;DHT22;14254;50.968;5.366;2022-11-27T04:08:29;8.00;99.90
26623;DHT22;14254;50.968;5.366;2022-11-27T04:10:54;8.10;99.90
26623;DHT22;14254;50.968;5.366;2022-11-27T04:13:21;8.00;99.90
26623;DHT22;14254;50.968;5.366;2022-11-27T04:15:47;8.00;99.90
26623;DHT22;14254;50.968;5.366;2022-11-27T04:18:13;8.00;99.90
26623;DHT22;14254;50.968;5.366;2022-11-27T04:20:38;8.10;99.90
26623;DHT22;14254;50.968;5.366;2022-11-27T04:23:04;8.20;99.90
26623;DHT22;14254;50.968;5.366;2022-11-27T04:25:30;8.30;99.90
26623;DHT22;14254;50.968;5.366;2022-11-27T04:27:55;8.20;99.90
26623;DHT22;14254;50.968;5.366;2022-11-27T04:30:21;8.20;99.90
26623;DHT22;14254;50.968;5.366;2022-11-27T04:32:47;8.20;99.90
26623;DHT22;14254;50.968;5.366;2022-11-27T04:35:12;8.10;99.90
26623;DHT22;14254;50.968;5.366;2022-11-27T04:37:38;8.10;99.90
26623;DHT22;14254;50.968;5.366;2022-11-27T04:40:05;8.20;99.90
26623;DHT22;14254;50.968;5.366;2022-11-27T04:42:31;8.40;99.90
26623;DHT22;14254;50.968;5.366;2022-11-27T04:44:56;8.20;99.90
26623;DHT22;14254;50.968;5.366;2022-11-27T04:47:22;8.20;99.90
26623;DHT22;14254;50.968;5.366;2022-11-27T04:49:47;8.20;99.90
26623;DHT22;14254;50.968;5.366;2022-11-27T04:52:13;8.10;99.90
26623;DHT22;14254;50.968;5.366;2022-11-27T04:54:39;8.20;99.90
26623;DHT22;14254;50.968;5.366;2022-11-27T04:57:05;8.10;99.90
26623;DHT22;14254;50.968;5.366;2022-11-27T04:59:31;8.10;99.90
26623;DHT22;14254;50.968;5.366;2022-11-27T05:01:57;8.10;99.90
26623;DHT22;14254;50.968;5.366;2022-11-27T05:04:23;8.20;99.90
26623;DHT22;14254;50.968;5.366;2022-11-27T05:06:49;8.20;99.90
26623;DHT22;14254;50.968;5.366;2022-11-27T05:09:16;8.20;99.90
26623;DHT22;14254;50.968;5.366;2022-11-27T05:11:42;8.30;99.90
26623;DHT22;14254;50.968;5.366;2022-11-27T05:14:08;8.30;99.90
26623;DHT22;14254;50.968;5.366;2022-11-27T05:16:47;8.30;99.90
26623;DHT22;14254;50.968;5.366;2022-11-27T05:19:13;8.30;99.90
26623;DHT22;14254;50.968;5.366;2022-11-27T05:21:40;8.40;99.90
26623;DHT22;14254;50.968;5.366;2022-11-27T05:24:06;8.60;99.90
26623;DHT22;14254;50.968;5.366;2022-11-27T05:26:32;8.70;99.90
26623;DHT22;14254;50.968;5.366;2022-11-27T05:28:58;8.60;99.90
26623;DHT22;14254;50.968;5.366;2022-11-27T05:31:24;8.60;99.90
26623;DHT22;14254;50.968;5.366;2022-11-27T05:33:49;8.60;99.90
26623;DHT22;14254;50.968;5.366;2022-11-27T05:36:15;8.60;99.90
26623;DHT22;14254;50.968;5.366;2022-11-27T05:38:41;8.50;99.90
26623;DHT22;14254;50.968;5.366;2022-11-27T05:41:06;8.50;99.90
26623;DHT22;14254;50.968;5.366;2022-11-27T05:43:32;8.40;99.90
26623;DHT22;14254;50.968;5.366;2022-11-27T05:45:58;8.50;99.90
26623;DHT22;14254;50.968;5.366;2022-11-27T05:48:23;8.60;99.90
26623;DHT22;14254;50.968;5.366;2022-11-27T05:50:49;8.50;99.90
26623;DHT22;14254;50.968;5.366;2022-11-27T05:53:15;8.50;99.90
26623;DHT22;14254;50.968;5.366;2022-11-27T05:55:40;8.60;99.90
26623;DHT22;14254;50.968;5.366;2022-11-27T05:58:06;8.50;99.90
26623;DHT22;14254;50.968;5.366;2022-11-27T06:00:31;8.50;99.90
26623;DHT22;14254;50.968;5.366;2022-11-27T06:02:57;8.50;99.90
26623;DHT22;14254;50.968;5.366;2022-11-27T06:05:23;8.50;99.90
26623;DHT22;14254;50.968;5.366;2022-11-27T06:07:48;8.60;99.90
26623;DHT22;14254;50.968;5.366;2022-11-27T06:10:14;8.60;99.90
26623;DHT22;14254;50.968;5.366;2022-11-27T06:12:40;8.60;99.90
26623;DHT22;14254;50.968;5.366;2022-11-27T06:15:07;8.60;99.90
26623;DHT22;14254;50.968;5.366;2022-11-27T06:17:32;8.50;99.90
26623;DHT22;14254;50.968;5.366;2022-11-27T06:19:58;8.50;99.90
26623;DHT22;14254;50.968;5.366;2022-11-27T06:22:23;8.40;99.90
26623;DHT22;14254;50.968;5.366;2022-11-27T06:24:49;8.60;99.90
26623;DHT22;14254;50.968;5.366;2022-11-27T06:27:15;8.60;99.90
26623;DHT22;14254;50.968;5.366;2022-11-27T06:29:40;8.60;99.90
26623;DHT22;14254;50.968;5.366;2022-11-27T06:32:06;8.60;99.90
26623;DHT22;14254;50.968;5.366;2022-11-27T06:34:32;8.60;99.90
26623;DHT22;14254;50.968;5.366;2022-11-27T06:36:57;8.50;99.90
26623;DHT22;14254;50.968;5.366;2022-11-27T06:39:23;8.50;99.90
26623;DHT22;14254;50.968;5.366;2022-11-27T06:41:49;8.50;99.90
26623;DHT22;14254;50.968;5.366;2022-11-27T06:44:14;8.70;99.90
26623;DHT22;14254;50.968;5.366;2022-11-27T06:46:40;8.60;99.90
26623;DHT22;14254;50.968;5.366;2022-11-27T06:49:05;8.60;99.90
26623;DHT22;14254;50.968;5.366;2022-11-27T06:51:31;8.60;99.90
26623;DHT22;14254;50.968;5.366;2022-11-27T06:54:01;8.50;99.90
26623;DHT22;14254;50.968;5.366;2022-11-27T06:56:28;8.40;99.90
26623;DHT22;14254;50.968;5.366;2022-11-27T06:58:56;8.50;99.90
26623;DHT22;14254;50.968;5.366;2022-11-27T07:01:24;8.50;99.90
26623;DHT22;14254;50.968;5.366;2022-11-27T07:03:49;8.50;99.90
26623;DHT22;14254;50.968;5.366;2022-11-27T07:06:21;8.50;99.90
26623;DHT22;14254;50.968;5.366;2022-11-27T07:08:47;8.50;99.90
26623;DHT22;14254;50.968;5.366;2022-11-27T07:11:21;8.50;99.90
26623;DHT22;14254;50.968;5.366;2022-11-27T07:13:48;8.50;99.90
26623;DHT22;14254;50.968;5.366;2022-11-27T07:16:15;8.50;99.90
26623;DHT22;14254;50.968;5.366;2022-11-27T07:18:43;8.50;99.90
26623;DHT22;14254;50.968;5.366;2022-11-27T07:21:09;8.70;99.90
26623;DHT22;14254;50.968;5.366;2022-11-27T07:23:36;8.60;99.90
26623;DHT22;14254;50.968;5.366;2022-11-27T07:26:06;8.60;99.90
26623;DHT22;14254;50.968;5.366;2022-11-27T07:28:32;8.70;99.90
26623;DHT22;14254;50.968;5.366;2022-11-27T07:30:58;8.50;99.90
26623;DHT22;14254;50.968;5.366;2022-11-27T07:33:24;8.70;99.90
26623;DHT22;14254;50.968;5.366;2022-11-27T07:35:57;8.40;99.90
26623;DHT22;14254;50.968;5.366;2022-11-27T07:38:23;8.40;99.90
26623;DHT22;14254;50.968;5.366;2022-11-27T07:40:49;8.50;99.90
26623;DHT22;14254;50.968;5.366;2022-11-27T07:43:14;8.50;99.90
26623;DHT22;14254;50.968;5.366;2022-11-27T07:45:40;8.50;99.90
26623;DHT22;14254;50.968;5.366;2022-11-27T07:48:05;8.60;99.90
26623;DHT22;14254;50.968;5.366;2022-11-27T07:50:31;8.50;99.90
26623;DHT22;14254;50.968;5.366;2022-11-27T07:52:57;8.40;99.90
26623;DHT22;14254;50.968;5.366;2022-11-27T07:55:23;8.50;99.90
26623;DHT22;14254;50.968;5.366;2022-11-27T07:57:49;8.40;99.90
26623;DHT22;14254;50.968;5.366;2022-11-27T08:00:15;8.20;99.90
26623;DHT22;14254;50.968;5.366;2022-11-27T08:02:40;8.10;99.90
26623;DHT22;14254;50.968;5.366;2022-11-27T08:05:06;8.10;99.90
26623;DHT22;14254;50.968;5.366;2022-11-27T08:07:32;8.10;99.90
26623;DHT22;14254;50.968;5.366;2022-11-27T08:09:58;8.20;99.90
26623;DHT22;14254;50.968;5.366;2022-11-27T08:12:24;8.20;99.90
26623;DHT22;14254;50.968;5.366;2022-11-27T08:14:50;8.30;99.90
26623;DHT22;14254;50.968;5.366;2022-11-27T08:17:16;8.10;99.90
26623;DHT22;14254;50.968;5.366;2022-11-27T08:19:42;8.40;99.90
26623;DHT22;14254;50.968;5.366;2022-11-27T08:22:15;8.40;99.90
26623;DHT22;14254;50.968;5.366;2022-11-27T08:24:43;8.30;99.90
26623;DHT22;14254;50.968;5.366;2022-11-27T08:27:10;8.40;99.90
26623;DHT22;14254;50.968;5.366;2022-11-27T08:29:36;8.40;99.90
26623;DHT22;14254;50.968;5.366;2022-11-27T08:32:02;8.30;99.90
26623;DHT22;14254;50.968;5.366;2022-11-27T08:34:28;8.40;99.90
26623;DHT22;14254;50.968;5.366;2022-11-27T08:36:53;8.40;99.90
26623;DHT22;14254;50.968;5.366;2022-11-27T08:39:19;8.40;99.90
26623;DHT22;14254;50.968;5.366;2022-11-27T08:41:45;8.60;99.90
26623;DHT22;14254;50.968;5.366;2022-11-27T08:44:10;8.50;99.90
26623;DHT22;14254;50.968;5.366;2022-11-27T08:46:37;8.50;99.90
26623;DHT22;14254;50.968;5.366;2022-11-27T08:49:03;8.60;99.90
26623;DHT22;14254;50.968;5.366;2022-11-27T08:51:29;8.40;99.90
26623;DHT22;14254;50.968;5.366;2022-11-27T08:53:54;8.40;99.90
26623;DHT22;14254;50.968;5.366;2022-11-27T08:56:23;8.40;99.90
26623;DHT22;14254;50.968;5.366;2022-11-27T08:58:49;8.50;99.90
26623;DHT22;14254;50.968;5.366;2022-11-27T09:03:45;8.70;99.90
26623;DHT22;14254;50.968;5.366;2022-11-27T09:06:16;8.70;99.90
26623;DHT22;14254;50.968;5.366;2022-11-27T09:08:42;8.60;99.90
26623;DHT22;14254;50.968;5.366;2022-11-27T09:11:10;8.70;99.90
26623;DHT22;14254;50.968;5.366;2022-11-27T09:13:36;8.70;99.90
26623;DHT22;14254;50.968;5.366;2022-11-27T09:16:07;8.70;99.90
26623;DHT22;14254;50.968;5.366;2022-11-27T09:18:34;8.70;99.90
26623;DHT22;14254;50.968;5.366;2022-11-27T09:21:02;8.90;99.90
26623;DHT22;14254;50.968;5.366;2022-11-27T09:23:28;8.90;99.90
26623;DHT22;14254;50.968;5.366;2022-11-27T09:26:00;9.00;99.90
26623;DHT22;14254;50.968;5.366;2022-11-27T09:28:26;9.00;99.90
26623;DHT22;14254;50.968;5.366;2022-11-27T09:30:56;9.10;99.90
26623;DHT22;14254;50.968;5.366;2022-11-27T09:33:23;9.10;99.90
26623;DHT22;14254;50.968;5.366;2022-11-27T09:35:49;9.20;99.90
26623;DHT22;14254;50.968;5.366;2022-11-27T09:38:15;9.10;99.90
26623;DHT22;14254;50.968;5.366;2022-11-27T09:40:49;9.20;99.90
26623;DHT22;14254;50.968;5.366;2022-11-27T09:43:15;9.30;99.90
26623;DHT22;14254;50.968;5.366;2022-11-27T09:45:48;9.40;99.90
26623;DHT22;14254;50.968;5.366;2022-11-27T09:48:22;9.30;99.90
26623;DHT22;14254;50.968;5.366;2022-11-27T09:50:51;9.30;99.90
26623;DHT22;14254;50.968;5.366;2022-11-27T09:55:53;9.30;99.90
26623;DHT22;14254;50.968;5.366;2022-11-27T10:03:36;9.30;99.90
26623;DHT22;14254;50.968;5.366;2022-11-27T10:06:19;9.30;99.90
26623;DHT22;14254;50.968;5.366;2022-11-27T10:08:56;9.30;99.90
26623;DHT22;14254;50.968;5.366;2022-11-27T10:11:39;9.10;99.90
26623;DHT22;14254;50.968;5.366;2022-11-27T10:17:13;9.10;99.90
26623;DHT22;14254;50.968;5.366;2022-11-27T10:19:50;9.00;99.90
26623;DHT22;14254;50.968;5.366;2022-11-27T10:22:50;9.00;99.90
26623;DHT22;14254;50.968;5.366;2022-11-27T10:25:36;9.00;99.90
26623;DHT22;14254;50.968;5.366;2022-11-27T10:31:03;9.00;99.90
26623;DHT22;14254;50.968;5.366;2022-11-27T10:33:50;8.90;99.90
26623;DHT22;14254;50.968;5.366;2022-11-27T10:36:23;9.00;99.90
26623;DHT22;14254;50.968;5.366;2022-11-27T10:38:52;9.00;99.90
26623;DHT22;14254;50.968;5.366;2022-11-27T10:41:33;9.10;99.90
26623;DHT22;14254;50.968;5.366;2022-11-27T10:46:46;9.40;99.90
26623;DHT22;14254;50.968;5.366;2022-11-27T10:49:13;9.40;99.90
26623;DHT22;14254;50.968;5.366;2022-11-27T10:51:40;9.40;99.90
26623;DHT22;14254;50.968;5.366;2022-11-27T10:54:12;9.30;99.90
26623;DHT22;14254;50.968;5.366;2022-11-27T10:56:54;9.40;99.90
26623;DHT22;14254;50.968;5.366;2022-11-27T10:59:30;9.60;99.90
26623;DHT22;14254;50.968;5.366;2022-11-27T11:01:57;9.80;99.90
26623;DHT22;14254;50.968;5.366;2022-11-27T11:04:29;9.80;99.90
26623;DHT22;14254;50.968;5.366;2022-11-27T11:06:55;10.00;99.90
26623;DHT22;14254;50.968;5.366;2022-11-27T11:09:30;10.10;99.90
26623;DHT22;14254;50.968;5.366;2022-11-27T11:12:07;10.20;99.90
26623;DHT22;14254;50.968;5.366;2022-11-27T11:14:33;10.10;99.90
26623;DHT22;14254;50.968;5.366;2022-11-27T11:16:58;10.00;99.90
26623;DHT22;14254;50.968;5.366;2022-11-27T11:19:34;10.00;99.90
26623;DHT22;14254;50.968;5.366;2022-11-27T11:22:12;10.00;99.90
26623;DHT22;14254;50.968;5.366;2022-11-27T11:24:39;9.90;99.90
26623;DHT22;14254;50.968;5.366;2022-11-27T11:27:15;10.00;99.90
26623;DHT22;14254;50.968;5.366;2022-11-27T11:30:04;9.90;99.90
26623;DHT22;14254;50.968;5.366;2022-11-27T11:32:35;9.90;99.90
26623;DHT22;14254;50.968;5.366;2022-11-27T11:35:22;9.90;99.90
26623;DHT22;14254;50.968;5.366;2022-11-27T11:37:50;9.90;99.90
26623;DHT22;14254;50.968;5.366;2022-11-27T11:40:21;10.00;99.90
26623;DHT22;14254;50.968;5.366;2022-11-27T11:43:22;10.00;99.90
26623;DHT22;14254;50.968;5.366;2022-11-27T11:45:49;9.90;99.90
26623;DHT22;14254;50.968;5.366;2022-11-27T11:48:21;10.00;99.90
26623;DHT22;14254;50.968;5.366;2022-11-27T11:53:36;9.60;99.90
26623;DHT22;14254;50.968;5.366;2022-11-27T12:10:13;10.00;99.90
26623;DHT22;14254;50.968;5.366;2022-11-27T12:13:03;10.10;99.90
26623;DHT22;14254;50.968;5.366;2022-11-27T12:15:36;10.10;99.90
26623;DHT22;14254;50.968;5.366;2022-11-27T12:18:53;10.00;99.90
26623;DHT22;14254;50.968;5.366;2022-11-27T12:21:43;10.00;99.90
26623;DHT22;14254;50.968;5.366;2022-11-27T12:30:17;9.80;99.90
26623;DHT22;14254;50.968;5.366;2022-11-27T12:38:37;9.80;99.90
26623;DHT22;14254;50.968;5.366;2022-11-27T12:41:41;9.70;99.90
26623;DHT22;14254;50.968;5.366;2022-11-27T12:47:14;9.80;99.90
26623;DHT22;14254;50.968;5.366;2022-11-27T12:49:47;9.90;99.90
26623;DHT22;14254;50.968;5.366;2022-11-27T12:52:24;9.90;99.90
26623;DHT22;14254;50.968;5.366;2022-11-27T12:58:03;9.80;99.90
26623;DHT22;14254;50.968;5.366;2022-11-27T13:00:34;9.80;99.90
26623;DHT22;14254;50.968;5.366;2022-11-27T13:03:21;9.70;99.90
26623;DHT22;14254;50.968;5.366;2022-11-27T13:06:24;9.60;99.90
26623;DHT22;14254;50.968;5.366;2022-11-27T13:09:04;9.60;99.90
26623;DHT22;14254;50.968;5.366;2022-11-27T13:11:36;9.80;99.90
26623;DHT22;14254;50.968;5.366;2022-11-27T13:14:13;9.70;99.90
26623;DHT22;14254;50.968;5.366;2022-11-27T13:16:43;9.80;99.90
26623;DHT22;14254;50.968;5.366;2022-11-27T13:21:40;9.80;99.90
26623;DHT22;14254;50.968;5.366;2022-11-27T13:24:11;9.90;99.90
26623;DHT22;14254;50.968;5.366;2022-11-27T13:29:54;9.80;99.90
26623;DHT22;14254;50.968;5.366;2022-11-27T13:32:29;9.70;99.90
26623;DHT22;14254;50.968;5.366;2022-11-27T13:34:58;9.70;99.90
26623;DHT22;14254;50.968;5.366;2022-11-27T13:37:36;9.80;99.90
26623;DHT22;14254;50.968;5.366;2022-11-27T13:42:54;9.70;99.90
26623;DHT22;14254;50.968;5.366;2022-11-27T13:45:24;9.70;99.90
26623;DHT22;14254;50.968;5.366;2022-11-27T13:47:51;9.70;99.90
26623;DHT22;14254;50.968;5.366;2022-11-27T13:50:19;9.70;99.90
26623;DHT22;14254;50.968;5.366;2022-11-27T13:53:00;9.70;99.90
26623;DHT22;14254;50.968;5.366;2022-11-27T13:55:31;9.80;99.90
26623;DHT22;14254;50.968;5.366;2022-11-27T13:57:59;9.80;99.90
26623;DHT22;14254;50.968;5.366;2022-11-27T14:00:38;9.70;99.90
26623;DHT22;14254;50.968;5.366;2022-11-27T14:03:05;9.70;99.90
26623;DHT22;14254;50.968;5.366;2022-11-27T14:05:39;9.60;99.90
26623;DHT22;14254;50.968;5.366;2022-11-27T14:08:22;9.60;99.90
26623;DHT22;14254;50.968;5.366;2022-11-27T14:10:57;9.60;99.90
26623;DHT22;14254;50.968;5.366;2022-11-27T14:13:45;9.60;99.90
26623;DHT22;14254;50.968;5.366;2022-11-27T14:16:30;9.60;99.90
26623;DHT22;14254;50.968;5.366;2022-11-27T14:18:59;9.60;99.90
26623;DHT22;14254;50.968;5.366;2022-11-27T14:21:36;9.60;99.90
26623;DHT22;14254;50.968;5.366;2022-11-27T14:24:33;9.80;99.90
26623;DHT22;14254;50.968;5.366;2022-11-27T14:27:05;9.50;99.90
26623;DHT22;14254;50.968;5.366;2022-11-27T14:29:31;9.50;99.90
26623;DHT22;14254;50.968;5.366;2022-11-27T14:32:01;9.50;99.90
26623;DHT22;14254;50.968;5.366;2022-11-27T14:34:31;9.60;99.90
26623;DHT22;14254;50.968;5.366;2022-11-27T14:36:58;9.60;99.90
26623;DHT22;14254;50.968;5.366;2022-11-27T14:39:28;9.70;99.90
26623;DHT22;14254;50.968;5.366;2022-11-27T14:42:16;9.60;99.90
26623;DHT22;14254;50.968;5.366;2022-11-27T14:44:43;9.60;99.90
26623;DHT22;14254;50.968;5.366;2022-11-27T14:47:17;9.60;99.90
26623;DHT22;14254;50.968;5.366;2022-11-27T14:49:44;9.60;99.90
26623;DHT22;14254;50.968;5.366;2022-11-27T14:52:14;9.60;99.90
26623;DHT22;14254;50.968;5.366;2022-11-27T14:54:41;9.60;99.90
26623;DHT22;14254;50.968;5.366;2022-11-27T14:57:29;9.60;99.90
26623;DHT22;14254;50.968;5.366;2022-11-27T15:02:36;9.50;99.90
26623;DHT22;14254;50.968;5.366;2022-11-27T15:05:04;9.50;99.90
26623;DHT22;14254;50.968;5.366;2022-11-27T15:07:31;9.60;99.90
26623;DHT22;14254;50.968;5.366;2022-11-27T15:10:02;9.50;99.90
26623;DHT22;14254;50.968;5.366;2022-11-27T15:12:32;9.40;99.90
26623;DHT22;14254;50.968;5.366;2022-11-27T15:15:03;9.30;99.90
26623;DHT22;14254;50.968;5.366;2022-11-27T15:17:35;9.20;99.90
26623;DHT22;14254;50.968;5.366;2022-11-27T15:20:08;9.20;99.90
26623;DHT22;14254;50.968;5.366;2022-11-27T15:22:35;9.20;99.90
26623;DHT22;14254;50.968;5.366;2022-11-27T15:25:05;9.30;99.90
26623;DHT22;14254;50.968;5.366;2022-11-27T15:27:32;9.20;99.90
26623;DHT22;14254;50.968;5.366;2022-11-27T15:30:11;9.20;99.90
26623;DHT22;14254;50.968;5.366;2022-11-27T15:32:49;9.20;99.90
26623;DHT22;14254;50.968;5.366;2022-11-27T15:35:27;9.20;99.90
26623;DHT22;14254;50.968;5.366;2022-11-27T15:37:55;9.10;99.90
26623;DHT22;14254;50.968;5.366;2022-11-27T15:40:29;9.10;99.90
26623;DHT22;14254;50.968;5.366;2022-11-27T15:42:55;9.00;99.90
26623;DHT22;14254;50.968;5.366;2022-11-27T15:45:21;9.10;99.90
26623;DHT22;14254;50.968;5.366;2022-11-27T15:47:47;9.10;99.90
26623;DHT22;14254;50.968;5.366;2022-11-27T15:50:14;9.10;99.90
26623;DHT22;14254;50.968;5.366;2022-11-27T15:52:40;9.10;99.90
26623;DHT22;14254;50.968;5.366;2022-11-27T15:55:06;9.10;99.90
26623;DHT22;14254;50.968;5.366;2022-11-27T15:57:32;9.00;99.90
26623;DHT22;14254;50.968;5.366;2022-11-27T15:59:57;8.90;99.90
26623;DHT22;14254;50.968;5.366;2022-11-27T16:02:23;8.80;99.90
26623;DHT22;14254;50.968;5.366;2022-11-27T16:04:52;8.90;99.90
26623;DHT22;14254;50.968;5.366;2022-11-27T16:07:18;8.90;99.90
26623;DHT22;14254;50.968;5.366;2022-11-27T16:09:44;8.80;99.90
26623;DHT22;14254;50.968;5.366;2022-11-27T16:12:11;8.90;99.90
26623;DHT22;14254;50.968;5.366;2022-11-27T16:14:36;8.90;99.90
26623;DHT22;14254;50.968;5.366;2022-11-27T16:17:02;8.90;99.90
26623;DHT22;14254;50.968;5.366;2022-11-27T16:19:27;8.80;99.90
26623;DHT22;14254;50.968;5.366;2022-11-27T16:21:54;8.90;99.90
26623;DHT22;14254;50.968;5.366;2022-11-27T16:24:21;8.90;99.90
26623;DHT22;14254;50.968;5.366;2022-11-27T16:26:46;8.90;99.90
26623;DHT22;14254;50.968;5.366;2022-11-27T16:29:12;8.90;99.90
26623;DHT22;14254;50.968;5.366;2022-11-27T16:31:38;8.80;99.90
26623;DHT22;14254;50.968;5.366;2022-11-27T16:34:05;8.80;99.90
26623;DHT22;14254;50.968;5.366;2022-11-27T16:36:31;8.80;99.90
26623;DHT22;14254;50.968;5.366;2022-11-27T16:38:57;8.90;99.90
26623;DHT22;14254;50.968;5.366;2022-11-27T16:41:23;8.90;99.90
26623;DHT22;14254;50.968;5.366;2022-11-27T16:43:50;8.90;99.90
26623;DHT22;14254;50.968;5.366;2022-11-27T16:46:22;8.90;99.90
26623;DHT22;14254;50.968;5.366;2022-11-27T16:48:48;8.90;99.90
26623;DHT22;14254;50.968;5.366;2022-11-27T16:51:17;8.80;99.90
26623;DHT22;14254;50.968;5.366;2022-11-27T16:53:45;8.70;99.90
26623;DHT22;14254;50.968;5.366;2022-11-27T16:56:13;8.70;99.90
26623;DHT22;14254;50.968;5.366;2022-11-27T16:58:41;8.70;99.90
26623;DHT22;14254;50.968;5.366;2022-11-27T17:01:09;8.70;99.90
26623;DHT22;14254;50.968;5.366;2022-11-27T17:03:36;8.50;99.90
26623;DHT22;14254;50.968;5.366;2022-11-27T17:06:13;8.40;99.90
26623;DHT22;14254;50.968;5.366;2022-11-27T17:08:39;8.30;99.90
26623;DHT22;14254;50.968;5.366;2022-11-27T17:11:09;8.30;99.90
26623;DHT22;14254;50.968;5.366;2022-11-27T17:13:35;8.40;99.90
26623;DHT22;14254;50.968;5.366;2022-11-27T17:16:00;8.40;99.90
26623;DHT22;14254;50.968;5.366;2022-11-27T17:18:26;8.40;99.90
26623;DHT22;14254;50.968;5.366;2022-11-27T17:20:51;8.40;99.90
26623;DHT22;14254;50.968;5.366;2022-11-27T17:23:17;8.40;99.90
26623;DHT22;14254;50.968;5.366;2022-11-27T17:25:43;8.50;99.90
26623;DHT22;14254;50.968;5.366;2022-11-27T17:28:08;8.50;99.90
26623;DHT22;14254;50.968;5.366;2022-11-27T17:30:37;8.50;99.90
26623;DHT22;14254;50.968;5.366;2022-11-27T17:33:02;8.50;99.90
26623;DHT22;14254;50.968;5.366;2022-11-27T17:35:28;8.50;99.90
26623;DHT22;14254;50.968;5.366;2022-11-27T17:37:55;8.50;99.90
26623;DHT22;14254;50.968;5.366;2022-11-27T17:40:20;8.60;99.90